Tropical Cyclones
[Index]
Main Index Home Page Stock Weather Photos Extreme Storms Discussion Storm News and Storm Chasing Reports Tropical Cyclones / Hurricanes / Typhoons Weather Data and Links Wild Fires / Bushfires Weather Observation Techniques Weather Picture Catalogue Tornado Pictures and Reports Stock Video Footage and DVDs for sale
Season 2005-2006 Tropical Cyclone BERTIE-ALVIN Track Map
Season 2005-2006 Summaries: [BoM-AU] [JTWC-AU] [JTWC-SIO] [JTWC-SPAC] [JTWC-SH]
<<- Previous TC | JTWC 2005-2006 Season | Next TC ->>

click for intensity scale information  Lat/long Grid: Show Hide

 Date Labels: Show Hide

Joint Typhoon Warning Centre Cyclone Data

Name: BERTIE-ALVIN

18 Nov 2005 06:00 UTC to 29 Nov 2005 06:00 UTC

    date/time    lat    long     hPa   cat  kts
2005-11-18 06    3.7    95.1    1006         15          
2005-11-18 12    4.3    94.6    1006         15          
2005-11-18 18    5.0    94.3    1006         15          
2005-11-19 00    5.8    94.2    1002         25          
2005-11-19 06    6.5    94.1    1002         25          
2005-11-19 12    7.1    93.9    1000         30          
2005-11-19 18    7.4    93.9     994    1    40          
2005-11-20 00    7.7    93.9     991    1    45          
2005-11-20 06    8.1    93.7     987    1    50          
2005-11-20 12    8.4    93.5     987    1    50          
2005-11-20 18    8.7    93.3     984    2    55          
2005-11-20 18    8.7    93.3     984    2    55          
2005-11-21 00    9.0    92.9     976    2    65          
2005-11-21 00    9.0    92.9     976    2    65          
2005-11-21 06    9.3    92.4     967    3    75          
2005-11-21 06    9.3    92.4     967    3    75          
2005-11-21 06    9.3    92.4     967    3    75          
2005-11-21 12    9.8    92.0     967    3    75          
2005-11-21 12    9.8    92.0     967    3    75          
2005-11-21 12    9.8    92.0     967    3    75          
2005-11-21 18   10.3    91.6     963    3    80          
2005-11-21 18   10.3    91.6     963    3    80          
2005-11-21 18   10.3    91.6     963    3    80          
2005-11-22 00   10.9    91.1     963    3    80          
2005-11-22 00   10.9    91.1     963    3    80          
2005-11-22 00   10.9    91.1     963    3    80          
2005-11-22 06   11.5    90.8     963    3    80          
2005-11-22 06   11.5    90.8     963    3    80          
2005-11-22 06   11.5    90.8     963    3    80          
2005-11-22 12   11.9    90.5     954    3    90          
2005-11-22 12   11.9    90.5     954    3    90          
2005-11-22 12   11.9    90.5     954    3    90          
2005-11-22 18   12.2    90.4     938    4   105          
2005-11-22 18   12.2    90.4     938    4   105          
2005-11-22 18   12.2    90.4     938    4   105          
2005-11-23 00   12.5    90.3     927    4   115          
2005-11-23 00   12.5    90.3     927    4   115          
2005-11-23 00   12.5    90.3     927    4   115          
2005-11-23 06   12.8    90.3     927    4   115          
2005-11-23 06   12.8    90.3     927    4   115          
2005-11-23 06   12.8    90.3     927    4   115          
2005-11-23 12   13.3    90.3     938    4   105          
2005-11-23 12   13.3    90.3     938    4   105          
2005-11-23 12   13.3    90.3     938    4   105          
2005-11-23 18   13.8    90.1     938    4   105          
2005-11-23 18   13.8    90.1     938    4   105          
2005-11-23 18   13.8    90.1     938    4   105          
2005-11-24 00   14.2    90.0     938    4   105          
2005-11-24 00   14.2    90.0     938    4   105          
2005-11-24 00   14.2    90.0     938    4   105          
2005-11-24 06   14.6    89.9     938    4   105          
2005-11-24 06   14.6    89.9     938    4   105          
2005-11-24 06   14.6    89.9     938    4   105          
2005-11-24 12   14.8    89.7     944    4   100          
2005-11-24 12   14.8    89.7     944    4   100          
2005-11-24 12   14.8    89.7     944    4   100          
2005-11-24 18   14.8    89.4     944    4   100          
2005-11-24 18   14.8    89.4     944    4   100          
2005-11-24 18   14.8    89.4     944    4   100          
2005-11-25 00   14.5    89.0     954    3    90          
2005-11-25 00   14.5    89.0     954    3    90          
2005-11-25 00   14.5    89.0     954    3    90          
2005-11-25 06   14.4    88.6     976    2    65          
2005-11-25 06   14.4    88.6     976    2    65          
2005-11-25 12   14.3    88.2     976    2    65          
2005-11-25 12   14.3    88.2     976    2    65          
2005-11-25 18   14.1    87.8     984    2    55          
2005-11-25 18   14.1    87.8     984    2    55          
2005-11-26 00   14.0    87.2     991    1    45          
2005-11-26 06   13.9    86.6     991    1    45          
2005-11-26 12   13.7    86.0     994    1    40          
2005-11-26 18   13.4    85.4     997         35          
2005-11-27 00   13.1    84.8    1002         25          
2005-11-27 06   12.9    84.2    1002         25          
2005-11-27 12   12.7    83.7    1002         25          
2005-11-27 18   12.5    83.4    1002         25          
2005-11-28 00   12.4    83.1    1002         25          
2005-11-28 06   12.7    82.8    1002         25          
2005-11-28 12   12.9    82.2    1002         25          
2005-11-28 18   12.3    81.6    1002         25          
2005-11-29 00   11.7    80.9    1002         25          
2005-11-29 06   11.0    80.3    1002         25          
Winds are 1-min average.

Tropical cyclone tracks developed by Michael Bath using data from the Joint Typhoon Warning Centre Best Tracks and Google Maps.


[Australian Severe Weather index] [Copyright Notice] [Email Contacts] [Search This Site] [Privacy Policy]
Document: tropical_cyclone_bertie-alvin.htm Updated: 28 June 2017